Time;durP1;ratioP1;P1;durP2;ratioP2;P2;SDS_P1;SDS_P2;PMS_P1;PMS_P2;Temp;Humidity;BMP_temperature;BMP_pressure;BME280_temperature;BME280_humidity;BME280_pressure;Samples;Min_cycle;Max_cycle;Signal;HPM_P1;HPM_P2
2023/06/25 00:00:57;;;;;;;;;;;;;;;30.51;31.73;94531.41;4971059;28;7647;-60
2023/06/25 00:04:08;;;;;;;;;;;;;;;30.51;31.17;94528.63;4971754;28;7599;-60
2023/06/25 00:07:19;;;;;;;;;;;;;;;30.50;32.09;94519.56;4974011;28;8787;-60
2023/06/25 00:10:19;;;;;;;;;;;;;;;30.47;32.07;94522.69;4986641;28;7228;-60
2023/06/25 00:12:54;;;;;;;;;;;;;;;30.42;31.62;94515.22;4969030;28;8531;-59
2023/06/25 00:15:20;;;;;;;;;;;;;;;30.38;31.93;94518.31;4983604;28;7042;-60
2023/06/25 00:17:49;;;;;;;;;;;;;;;30.35;32.31;94519.41;4972756;28;8744;-60
2023/06/25 00:20:26;;;;;;;;;;;;;;;30.33;31.95;94521.22;4999125;28;7300;-60
2023/06/25 00:22:59;;;;;;;;;;;;;;;30.32;31.60;94514.22;4987763;28;8948;-59
2023/06/25 00:25:52;;;;;;;;;;;;;;;30.30;31.02;94517.47;5045280;28;7509;-60
2023/06/25 00:28:37;;;;;;;;;;;;;;;30.29;31.86;94506.91;5028400;28;7115;-60
2023/06/25 00:31:16;;;;;;;;;;;;;;;30.27;31.65;94507.47;5023753;28;7232;-61
2023/06/25 00:33:56;;;;;;;;;;;;;;;30.27;31.11;94509.50;5031915;28;7180;-61
2023/06/25 00:36:22;;;;;;;;;;;;;;;30.25;31.67;94509.28;5031787;28;7273;-60
2023/06/25 00:39:19;;;;;;;;;;;;;;;30.25;32.01;94500.97;5045393;28;7194;-61
2023/06/25 00:42:05;;;;;;;;;;;;;;;30.24;31.59;94505.75;4969734;28;8436;-61
2023/06/25 00:45:03;;;;;;;;;;;;;;;30.23;31.63;94500.75;4972839;28;8234;-60
2023/06/25 00:47:33;;;;;;;;;;;;;;;30.22;31.51;94500.00;4952802;28;7062;-61
2023/06/25 00:50:12;;;;;;;;;;;;;;;30.22;31.79;94497.22;4954367;28;8789;-61
2023/06/25 00:52:42;;;;;;;;;;;;;;;30.20;31.92;94494.25;4949836;28;7058;-61
2023/06/25 00:55:28;;;;;;;;;;;;;;;30.19;32.06;94494.81;4954351;28;9093;-61
2023/06/25 00:57:56;;;;;;;;;;;;;;;30.19;31.90;94498.31;4967272;28;7391;-60
2023/06/25 01:00:25;;;;;;;;;;;;;;;30.19;30.86;94489.25;4968135;28;9388;-60
2023/06/25 01:03:03;;;;;;;;;;;;;;;30.19;31.55;94492.75;4953392;28;7055;-61
2023/06/25 01:05:47;;;;;;;;;;;;;;;30.19;31.99;94497.56;4954467;28;7309;-61
2023/06/25 01:08:21;;;;;;;;;;;;;;;30.16;31.36;94488.28;4970470;28;7036;-61
2023/06/25 01:10:59;;;;;;;;;;;;;;;30.16;31.17;94485.53;4956000;28;7117;-61
2023/06/25 01:13:29;;;;;;;;;;;;;;;30.15;31.62;94489.56;4952400;28;9282;-61
2023/06/25 01:15:57;;;;;;;;;;;;;;;30.14;30.80;94482.53;4963259;28;9044;-61
2023/06/25 01:18:44;;;;;;;;;;;;;;;30.14;30.82;94485.31;4991902;28;7207;-61
2023/06/25 01:21:13;;;;;;;;;;;;;;;30.16;31.14;94477.19;4994528;28;7073;-61
2023/06/25 01:24:09;;;;;;;;;;;;;;;30.14;31.77;94479.78;5015689;28;7382;-61
2023/06/25 01:26:36;;;;;;;;;;;;;;;30.14;31.60;94484.56;4974586;28;7023;-61
2023/06/25 01:29:03;;;;;;;;;;;;;;;30.14;31.11;94479.03;4987401;28;7482;-61
2023/06/25 01:31:40;;;;;;;;;;;;;;;30.13;31.56;94474.75;4972907;28;7245;-61
2023/06/25 01:34:06;;;;;;;;;;;;;;;30.11;31.60;94480.84;4976320;28;7089;-61
2023/06/25 01:36:52;;;;;;;;;;;;;;;30.12;31.64;94484.38;4973877;28;7225;-61
2023/06/25 01:39:28;;;;;;;;;;;;;;;30.12;31.41;94482.34;4994361;28;9744;-61
2023/06/25 01:42:23;;;;;;;;;;;;;;;30.13;31.11;94488.63;4991515;28;7020;-61
2023/06/25 01:44:49;;;;;;;;;;;;;;;30.11;30.82;94489.16;4972261;28;9096;-61
2023/06/25 01:47:20;;;;;;;;;;;;;;;30.08;30.73;94479.13;4986927;28;7639;-61
2023/06/25 01:49:47;;;;;;;;;;;;;;;30.10;31.35;94478.59;4987237;28;7054;-61
2023/06/25 01:52:13;;;;;;;;;;;;;;;30.12;30.59;94478.81;4971069;28;8803;-61
2023/06/25 01:54:39;;;;;;;;;;;;;;;30.12;31.19;94474.03;4971398;28;6936;-60
2023/06/25 01:57:05;;;;;;;;;;;;;;;30.09;30.67;94466.00;4979080;28;7267;-61
2023/06/25 01:59:36;;;;;;;;;;;;;;;30.09;31.18;94466.75;4980158;28;7218;-61
2023/06/25 02:02:02;;;;;;;;;;;;;;;30.09;31.57;94474.34;4999842;28;7207;-61
2023/06/25 02:04:30;;;;;;;;;;;;;;;30.07;30.45;94466.56;5021238;28;9038;-61
2023/06/25 02:06:56;;;;;;;;;;;;;;;30.06;31.14;94462.28;5044619;28;8734;-61
2023/06/25 02:09:22;;;;;;;;;;;;;;;30.07;30.96;94463.03;5045435;28;7187;-61
2023/06/25 02:11:49;;;;;;;;;;;;;;;30.05;30.64;94466.34;5030457;28;9662;-61
2023/06/25 02:14:15;;;;;;;;;;;;;;;30.09;30.70;94463.25;5045314;28;7074;-61
2023/06/25 02:16:42;;;;;;;;;;;;;;;30.08;31.56;94456.94;5030853;28;8998;-60
2023/06/25 02:19:09;;;;;;;;;;;;;;;30.09;30.59;94458.44;5028264;28;9239;-60
2023/06/25 02:21:35;;;;;;;;;;;;;;;30.12;31.62;94451.06;5028533;28;7350;-60
2023/06/25 02:24:01;;;;;;;;;;;;;;;30.12;31.09;94446.28;5029088;28;9051;-60
2023/06/25 02:26:27;;;;;;;;;;;;;;;30.14;31.20;94452.03;5020565;28;8729;-60
2023/06/25 02:28:53;;;;;;;;;;;;;;;30.15;31.78;94449.97;5044164;28;7277;-60
2023/06/25 02:31:19;;;;;;;;;;;;;;;30.14;31.16;94440.94;5044619;28;9087;-60
2023/06/25 02:33:45;;;;;;;;;;;;;;;30.13;31.48;94442.19;5020022;28;7881;-60
2023/06/25 02:36:12;;;;;;;;;;;;;;;30.15;31.35;94447.94;5044959;28;9315;-60
2023/06/25 02:38:38;;;;;;;;;;;;;;;30.12;30.70;94439.97;5021694;28;7011;-60
2023/06/25 02:41:03;;;;;;;;;;;;;;;30.13;31.82;94447.00;5046060;28;7251;-60
2023/06/25 02:43:29;;;;;;;;;;;;;;;30.15;31.17;94447.94;5022284;28;7227;-60
2023/06/25 02:45:59;;;;;;;;;;;;;;;30.15;31.97;94450.72;5046125;28;7304;-60
2023/06/25 02:48:26;;;;;;;;;;;;;;;30.15;31.41;94456.28;5029401;28;7048;-60
2023/06/25 02:50:51;;;;;;;;;;;;;;;30.16;31.44;94449.47;5028432;28;7111;-60
2023/06/25 02:53:18;;;;;;;;;;;;;;;30.16;31.00;94449.47;5027947;28;9456;-60
2023/06/25 02:55:48;;;;;;;;;;;;;;;30.15;31.82;94450.72;5028015;28;8742;-60
2023/06/25 02:58:20;;;;;;;;;;;;;;;30.14;31.00;94443.72;5027519;28;7255;-61
2023/06/25 03:00:49;;;;;;;;;;;;;;;30.12;31.51;94446.28;5026445;28;9833;-60
2023/06/25 03:03:16;;;;;;;;;;;;;;;30.12;31.16;94451.81;5044208;28;7194;-60
2023/06/25 03:05:47;;;;;;;;;;;;;;;30.11;31.16;94444.03;5043471;28;7479;-60
2023/06/25 03:08:13;;;;;;;;;;;;;;;30.11;31.72;94450.31;5019702;28;7601;-60
2023/06/25 03:10:43;;;;;;;;;;;;;;;30.12;31.72;94451.81;5028248;28;7181;-60
2023/06/25 03:13:17;;;;;;;;;;;;;;;30.12;31.46;94453.84;5020575;28;7224;-60
2023/06/25 03:15:43;;;;;;;;;;;;;;;30.08;31.65;94450.66;5026247;28;9628;-60
2023/06/25 03:18:10;;;;;;;;;;;;;;;30.09;31.42;94457.69;5020617;28;8416;-60
2023/06/25 03:20:36;;;;;;;;;;;;;;;30.08;32.00;94445.84;5028511;28;7034;-60
2023/06/25 03:23:04;;;;;;;;;;;;;;;30.10;31.67;94448.09;5020539;28;8990;-60
2023/06/25 03:25:31;;;;;;;;;;;;;;;30.09;32.38;94455.66;5020030;28;7113;-60
2023/06/25 03:28:02;;;;;;;;;;;;;;;30.08;31.95;94450.66;5026402;28;7036;-61
2023/06/25 03:30:28;;;;;;;;;;;;;;;30.08;31.84;94451.38;5043258;28;9071;-60
2023/06/25 03:32:57;;;;;;;;;;;;;;;30.07;31.83;94449.91;5043675;28;9289;-61
2023/06/25 03:35:24;;;;;;;;;;;;;;;30.06;31.64;94447.69;5044473;28;7282;-60
2023/06/25 03:37:53;;;;;;;;;;;;;;;30.06;31.67;94456.72;5024992;28;9063;-60
2023/06/25 03:40:19;;;;;;;;;;;;;;;30.04;31.68;94458.56;5047750;28;7117;-60
2023/06/25 03:42:45;;;;;;;;;;;;;;;30.05;31.68;94455.25;5043292;28;9465;-60
2023/06/25 03:45:18;;;;;;;;;;;;;;;30.01;31.06;94449.31;5022592;28;9105;-60
2023/06/25 03:47:46;;;;;;;;;;;;;;;30.03;32.28;94449.50;5028864;28;7038;-60
2023/06/25 03:50:13;;;;;;;;;;;;;;;30.03;32.01;94448.75;5031893;28;7034;-60
2023/06/25 03:52:38;;;;;;;;;;;;;;;30.01;31.68;94454.84;5021501;28;7102;-60
2023/06/25 03:55:07;;;;;;;;;;;;;;;30.00;31.92;94452.59;5047971;28;8965;-60
2023/06/25 03:57:38;;;;;;;;;;;;;;;30.00;32.40;94452.59;5028430;28;7283;-61
2023/06/25 04:00:05;;;;;;;;;;;;;;;29.99;32.00;94454.66;5014504;28;7254;-60
2023/06/25 04:02:45;;;;;;;;;;;;;;;29.95;31.62;94443.13;5029785;28;7040;-60
2023/06/25 04:05:25;;;;;;;;;;;;;;;29.97;32.08;94451.63;5046527;28;7068;-60
2023/06/25 04:07:55;;;;;;;;;;;;;;;29.96;31.08;94449.41;5030555;28;7129;-61
2023/06/25 04:10:25;;;;;;;;;;;;;;;29.93;31.78;94445.69;5045549;28;7111;-60
2023/06/25 04:12:58;;;;;;;;;;;;;;;29.95;31.58;94447.94;5047795;28;9007;-60
2023/06/25 04:15:24;;;;;;;;;;;;;;;29.93;31.44;94445.69;5030139;28;9007;-60
2023/06/25 04:18:12;;;;;;;;;;;;;;;29.93;31.46;94453.28;5023499;28;9348;-60
2023/06/25 04:20:48;;;;;;;;;;;;;;;29.93;31.65;94456.06;5031636;28;7489;-60
2023/06/25 04:23:23;;;;;;;;;;;;;;;29.91;31.07;94453.06;5025090;28;9236;-60
2023/06/25 04:25:50;;;;;;;;;;;;;;;29.91;31.55;94453.81;5046290;28;7362;-60
2023/06/25 04:28:16;;;;;;;;;;;;;;;29.91;30.92;94453.06;5029894;28;7377;-60
2023/06/25 04:30:47;;;;;;;;;;;;;;;29.89;31.93;94448.06;5023187;28;7052;-59
2023/06/25 04:33:13;;;;;;;;;;;;;;;29.90;32.10;94451.56;5031150;28;7101;-60
2023/06/25 04:35:42;;;;;;;;;;;;;;;29.92;31.56;94444.22;5025941;28;7458;-60
2023/06/25 04:38:09;;;;;;;;;;;;;;;29.94;31.62;94455.50;5027234;28;7222;-60
2023/06/25 04:40:37;;;;;;;;;;;;;;;29.90;32.24;94448.81;5059617;28;7301;-60
2023/06/25 04:43:05;;;;;;;;;;;;;;;29.92;32.08;94449.75;5059739;28;9148;-60
2023/06/25 04:45:33;;;;;;;;;;;;;;;29.92;31.42;94451.78;5047454;28;9108;-60
2023/06/25 04:48:01;;;;;;;;;;;;;;;29.90;31.83;94457.88;5047210;28;7449;-60
2023/06/25 04:50:27;;;;;;;;;;;;;;;29.90;31.96;94455.09;5045839;28;7084;-61
2023/06/25 04:52:54;;;;;;;;;;;;;;;29.90;31.63;94452.31;5063087;28;8296;-60
2023/06/25 04:55:40;;;;;;;;;;;;;;;29.91;31.01;94453.06;5049387;28;7065;-60
2023/06/25 04:58:11;;;;;;;;;;;;;;;29.90;32.02;94452.31;5033160;28;9144;-60
2023/06/25 05:00:50;;;;;;;;;;;;;;;29.90;31.77;94452.31;5035692;28;9109;-60
2023/06/25 05:03:24;;;;;;;;;;;;;;;29.90;30.89;94446.78;5049840;28;7188;-61
2023/06/25 05:05:51;;;;;;;;;;;;;;;29.87;30.81;94447.09;5067960;28;9316;-61
2023/06/25 05:08:20;;;;;;;;;;;;;;;29.87;30.92;94439.53;5033923;28;8204;-61
2023/06/25 05:10:49;;;;;;;;;;;;;;;29.86;31.69;94446.38;5033215;28;7000;-61
2023/06/25 05:13:28;;;;;;;;;;;;;;;29.87;31.21;94444.31;5039312;28;7308;-61
2023/06/25 05:15:54;;;;;;;;;;;;;;;29.89;31.37;94450.81;5032361;28;8479;-60
2023/06/25 05:18:31;;;;;;;;;;;;;;;29.87;31.91;94453.38;5049845;28;7098;-60
2023/06/25 05:21:17;;;;;;;;;;;;;;;29.85;31.44;94449.66;5029534;28;7079;-60
2023/06/25 05:23:58;;;;;;;;;;;;;;;29.82;32.23;94445.94;5030532;28;7236;-60
2023/06/25 05:26:29;;;;;;;;;;;;;;;29.84;31.51;94448.91;5022654;28;7703;-60
2023/06/25 05:28:56;;;;;;;;;;;;;;;29.83;32.22;94446.69;5041638;28;7056;-59
2023/06/25 05:31:39;;;;;;;;;;;;;;;29.85;31.38;94458.72;5030831;28;9225;-61
2023/06/25 05:34:07;;;;;;;;;;;;;;;29.89;31.38;94453.59;5031738;28;9006;-61
2023/06/25 05:36:43;;;;;;;;;;;;;;;29.88;31.96;94454.91;5024777;28;7272;-61
2023/06/25 05:39:11;;;;;;;;;;;;;;;29.90;31.38;94457.13;5049551;28;7049;-61
2023/06/25 05:42:02;;;;;;;;;;;;;;;29.91;32.07;94455.81;5024659;28;7048;-60
2023/06/25 05:44:35;;;;;;;;;;;;;;;29.92;32.10;94460.84;5047821;28;7048;-61
2023/06/25 05:47:10;;;;;;;;;;;;;;;29.93;31.72;94462.31;5032196;28;7061;-61
2023/06/25 05:49:47;;;;;;;;;;;;;;;29.93;31.73;94459.56;5032751;28;9075;-61
2023/06/25 05:53:06;;;;;;;;;;;;;;;29.95;31.88;94453.50;5047519;28;9592;-61
2023/06/25 05:55:42;;;;;;;;;;;;;;;29.94;31.35;94452.72;5001327;28;7042;-60
2023/06/25 05:58:10;;;;;;;;;;;;;;;29.94;31.13;94458.28;5006732;28;7025;-61
2023/06/25 06:00:57;;;;;;;;;;;;;;;29.93;31.59;94451.22;4992697;28;8769;-61
2023/06/25 06:03:26;;;;;;;;;;;;;;;29.91;31.73;94450.28;5003311;28;7271;-62
2023/06/25 06:06:02;;;;;;;;;;;;;;;29.93;31.62;94450.50;5003480;28;9042;-60
2023/06/25 06:08:47;;;;;;;;;;;;;;;29.96;31.35;94452.19;4990726;28;7561;-60
2023/06/25 06:11:13;;;;;;;;;;;;;;;29.94;31.54;94447.19;4989923;28;9475;-60
2023/06/25 06:13:51;;;;;;;;;;;;;;;29.96;31.77;94444.63;5006031;28;9466;-61
2023/06/25 06:16:17;;;;;;;;;;;;;;;29.95;31.95;94448.66;4988157;28;7225;-60
2023/06/25 06:18:53;;;;;;;;;;;;;;;29.92;31.69;94438.66;4988892;28;6956;-60
2023/06/25 06:21:30;;;;;;;;;;;;;;;29.96;32.18;94450.16;4986698;28;7169;-61
2023/06/25 06:24:06;;;;;;;;;;;;;;;29.97;31.77;94443.31;4983603;28;7312;-60
2023/06/25 06:26:34;;;;;;;;;;;;;;;29.94;31.95;94440.88;4989404;28;7265;-60
2023/06/25 06:29:03;;;;;;;;;;;;;;;29.91;31.06;94448.25;4988615;28;7840;-61
2023/06/25 06:31:47;;;;;;;;;;;;;;;29.94;31.16;94443.66;5007778;28;8198;-61
2023/06/25 06:34:41;;;;;;;;;;;;;;;29.95;30.62;94450.72;5030849;28;7222;-61
2023/06/25 06:37:39;;;;;;;;;;;;;;;29.96;34.05;94447.41;5025372;28;7258;-61
2023/06/25 06:40:06;;;;;;;;;;;;;;;29.96;32.59;94446.66;4944007;28;7149;-61
2023/06/25 06:43:05;;;;;;;;;;;;;;;29.95;32.73;94448.66;4945512;28;9079;-61
2023/06/25 06:45:55;;;;;;;;;;;;;;;29.95;32.39;94445.88;4904585;29;8938;-61
2023/06/25 06:48:38;;;;;;;;;;;;;;;29.97;31.97;94453.69;4909651;29;8769;-61
2023/06/25 06:51:55;;;;;;;;;;;;;;;29.97;31.91;94450.91;4892353;29;7132;-61
2023/06/25 06:54:43;;;;;;;;;;;;;;;29.92;32.00;94444.22;4839827;29;7405;-61
2023/06/25 06:57:56;;;;;;;;;;;;;;;29.95;31.99;94447.94;4833568;29;8942;-61
2023/06/25 07:00:24;;;;;;;;;;;;;;;29.94;31.65;94449.97;4792194;29;7574;-61
2023/06/25 07:02:53;;;;;;;;;;;;;;;29.97;32.40;94442.59;4774375;29;7240;-61
2023/06/25 07:05:51;;;;;;;;;;;;;;;29.95;31.10;94442.41;4777885;29;7137;-61
2023/06/25 07:08:44;;;;;;;;;;;;;;;29.95;31.11;94450.72;4770297;29;7541;-62
2023/06/25 07:11:38;;;;;;;;;;;;;;;29.96;32.41;94449.41;4783097;29;8640;-62
2023/06/25 07:14:33;;;;;;;;;;;;;;;29.96;31.52;94452.19;4782167;29;7705;-62
2023/06/25 07:17:00;;;;;;;;;;;;;;;29.96;31.63;94450.16;4754258;30;7739;-62
2023/06/25 07:19:34;;;;;;;;;;;;;;;29.91;32.04;94448.25;4748715;29;8323;-61
2023/06/25 07:22:00;;;;;;;;;;;;;;;29.94;31.86;94449.97;4808331;29;8251;-62
2023/06/25 07:24:26;;;;;;;;;;;;;;;29.91;32.56;94453.81;4829268;29;7253;-61
2023/06/25 07:27:07;;;;;;;;;;;;;;;29.94;31.84;94446.44;4828336;29;7308;-61
2023/06/25 07:29:50;;;;;;;;;;;;;;;29.95;32.32;94454.22;4852664;29;7251;-61
2023/06/25 07:32:20;;;;;;;;;;;;;;;29.96;32.56;94452.19;4892682;29;9427;-61
2023/06/25 07:35:05;;;;;;;;;;;;;;;29.97;32.56;94459.25;4889602;29;7034;-61
2023/06/25 07:37:31;;;;;;;;;;;;;;;29.97;32.27;94450.91;4908756;28;7501;-61
2023/06/25 07:40:31;;;;;;;;;;;;;;;29.96;32.71;94455.72;4932182;28;7700;-61
2023/06/25 07:43:06;;;;;;;;;;;;;;;29.92;32.09;94449.75;4950439;28;8996;-62
2023/06/25 07:46:00;;;;;;;;;;;;;;;29.95;34.63;94454.22;4965138;28;9044;-61
2023/06/25 07:48:40;;;;;;;;;;;;;;;29.95;35.24;94456.25;4966645;28;7277;-61
2023/06/25 07:51:54;;;;;;;;;;;;;;;29.99;35.15;94454.66;4987573;28;7226;-61
2023/06/25 07:55:00;;;;;;;;;;;;;;;30.02;34.61;94459.09;5015775;28;7057;-61
2023/06/25 07:57:40;;;;;;;;;;;;;;;29.98;34.27;94453.16;5026335;28;7442;-61
2023/06/25 08:00:17;;;;;;;;;;;;;;;30.01;35.07;94448.56;5043150;28;7277;-61
2023/06/25 08:02:59;;;;;;;;;;;;;;;30.01;33.95;94443.75;5027788;28;8750;-61
2023/06/25 08:05:54;;;;;;;;;;;;;;;30.02;34.80;94452.81;5028930;28;7251;-61
2023/06/25 08:08:20;;;;;;;;;;;;;;;30.01;34.93;94446.53;4981604;28;7112;-61
2023/06/25 08:10:51;;;;;;;;;;;;;;;29.98;35.09;94444.81;4983953;28;7169;-61
2023/06/25 08:13:19;;;;;;;;;;;;;;;29.98;34.67;94441.31;4977266;28;9030;-61
2023/06/25 08:15:45;;;;;;;;;;;;;;;30.01;34.43;94451.31;4977241;28;7028;-60
2023/06/25 08:18:11;;;;;;;;;;;;;;;29.99;35.06;94443.56;4988621;28;6970;-61
2023/06/25 08:20:37;;;;;;;;;;;;;;;30.00;34.03;94450.56;4958201;28;7577;-61
2023/06/25 08:23:03;;;;;;;;;;;;;;;30.00;34.64;94445.03;4976089;28;7185;-60
2023/06/25 08:25:38;;;;;;;;;;;;;;;30.02;34.98;94442.47;4964221;28;7167;-60
2023/06/25 08:28:13;;;;;;;;;;;;;;;30.02;34.26;94447.25;4982703;28;8820;-60
2023/06/25 08:31:00;;;;;;;;;;;;;;;30.00;34.16;94450.56;4968130;28;7054;-60
2023/06/25 08:33:43;;;;;;;;;;;;;;;30.02;34.35;94453.56;4968518;28;7625;-61
2023/06/25 08:36:09;;;;;;;;;;;;;;;30.04;35.12;94453.00;4981533;28;9282;-60
2023/06/25 08:38:36;;;;;;;;;;;;;;;30.03;35.01;94449.50;4979173;28;7177;-61
2023/06/25 08:41:14;;;;;;;;;;;;;;;30.02;35.26;94450.78;4980834;28;7252;-61
2023/06/25 08:43:55;;;;;;;;;;;;;;;30.04;34.68;94455.78;4970165;28;7296;-61
2023/06/25 08:46:27;;;;;;;;;;;;;;;30.02;35.26;94450.78;5042538;28;7264;-61
2023/06/25 08:49:08;;;;;;;;;;;;;;;30.04;34.44;94464.09;5041887;28;7196;-61
2023/06/25 08:51:58;;;;;;;;;;;;;;;30.04;35.42;94459.31;5022467;28;7269;-60
2023/06/25 08:54:53;;;;;;;;;;;;;;;30.07;34.62;94465.81;5024344;28;7284;-61
2023/06/25 08:57:20;;;;;;;;;;;;;;;30.07;35.26;94454.72;5014556;28;7803;-60
2023/06/25 08:59:48;;;;;;;;;;;;;;;30.06;34.43;94456.72;5003023;28;7138;-60
2023/06/25 09:02:15;;;;;;;;;;;;;;;30.03;34.84;94454.31;5002599;28;8709;-61
2023/06/25 09:04:43;;;;;;;;;;;;;;;30.06;34.51;94453.97;5004821;28;9635;-61
2023/06/25 09:07:19;;;;;;;;;;;;;;;30.06;35.17;94445.63;5003542;28;9356;-61
2023/06/25 09:09:52;;;;;;;;;;;;;;;30.02;36.35;94456.31;5020563;28;8561;-60
2023/06/25 09:12:25;;;;;;;;;;;;;;;29.95;36.44;94453.50;5011203;28;9430;-61
2023/06/25 09:14:51;;;;;;;;;;;;;;;29.96;36.01;94452.94;5004424;28;7043;-61
2023/06/25 09:17:33;;;;;;;;;;;;;;;29.97;35.11;94446.09;5004226;28;9234;-60
2023/06/25 09:20:14;;;;;;;;;;;;;;;30.04;35.84;94453.00;5018994;28;9120;-60
2023/06/25 09:23:23;;;;;;;;;;;;;;;30.03;35.52;94449.50;5008873;28;8919;-61
2023/06/25 09:25:55;;;;;;;;;;;;;;;30.06;35.74;94448.41;4968951;28;7447;-61
2023/06/25 09:28:49;;;;;;;;;;;;;;;30.08;35.57;94459.72;4952576;28;9412;-61
2023/06/25 09:31:17;;;;;;;;;;;;;;;30.10;36.60;94456.41;4957196;28;8871;-62
2023/06/25 09:34:03;;;;;;;;;;;;;;;30.12;35.23;94457.38;4962738;28;9034;-61
2023/06/25 09:36:33;;;;;;;;;;;;;;;30.12;36.18;94451.81;4992320;28;7201;-61
2023/06/25 09:38:59;;;;;;;;;;;;;;;30.14;36.07;94459.59;5007052;28;9236;-61
2023/06/25 09:41:45;;;;;;;;;;;;;;;30.12;36.13;94448.31;4975897;28;8234;-61
2023/06/25 09:44:13;;;;;;;;;;;;;;;30.11;35.63;94446.78;4993202;28;9068;-61
2023/06/25 09:46:49;;;;;;;;;;;;;;;30.13;35.95;94441.44;4989651;28;9083;-61
2023/06/25 09:49:19;;;;;;;;;;;;;;;30.12;34.93;94446.28;4989421;28;7252;-61
2023/06/25 09:52:15;;;;;;;;;;;;;;;30.15;34.76;94447.94;4973251;28;7319;-61
2023/06/25 09:54:46;;;;;;;;;;;;;;;30.16;35.32;94446.69;4953087;28;7112;-61
2023/06/25 09:57:18;;;;;;;;;;;;;;;30.17;34.89;94448.16;4934696;28;7462;-60
2023/06/25 09:59:54;;;;;;;;;;;;;;;30.14;35.84;94440.94;4963251;28;9014;-60
2023/06/25 10:03:04;;;;;;;;;;;;;;;30.19;35.32;94439.31;4984199;28;7443;-60
2023/06/25 10:05:37;;;;;;;;;;;;;;;30.17;34.78;94437.06;4987594;28;8737;-60
2023/06/25 10:08:06;;;;;;;;;;;;;;;30.19;35.80;94437.25;4992035;28;9495;-60
2023/06/25 10:10:33;;;;;;;;;;;;;;;30.19;35.48;94434.50;5003142;28;7318;-61
2023/06/25 10:13:05;;;;;;;;;;;;;;;30.18;35.51;94435.78;5002067;28;8703;-61
2023/06/25 10:15:33;;;;;;;;;;;;;;;30.17;34.55;94425.97;4987223;28;7043;-61
2023/06/25 10:18:09;;;;;;;;;;;;;;;30.19;35.06;94426.16;5005781;28;7254;-61
2023/06/25 10:20:36;;;;;;;;;;;;;;;30.21;35.19;94431.19;5003121;28;9541;-61
2023/06/25 10:23:21;;;;;;;;;;;;;;;30.23;34.56;94429.34;5004007;28;7536;-61
2023/06/25 10:26:03;;;;;;;;;;;;;;;30.25;35.24;94426.78;4998274;28;9543;-61
2023/06/25 10:28:50;;;;;;;;;;;;;;;30.26;33.97;94433.81;4990065;28;9812;-61
2023/06/25 10:31:21;;;;;;;;;;;;;;;30.27;34.92;94435.31;5000307;28;8038;-61
2023/06/25 10:34:04;;;;;;;;;;;;;;;30.26;34.63;94424.75;5046185;28;7172;-61
2023/06/25 10:37:01;;;;;;;;;;;;;;;30.31;35.36;94426.69;5026052;28;8875;-61
2023/06/25 10:40:00;;;;;;;;;;;;;;;30.31;34.23;94427.44;5043942;28;9271;-60
2023/06/25 10:42:42;;;;;;;;;;;;;;;30.30;34.54;94428.66;5044249;28;9044;-60
2023/06/25 10:45:09;;;;;;;;;;;;;;;30.32;34.67;94433.72;5024060;28;7808;-61
2023/06/25 10:48:03;;;;;;;;;;;;;;;30.32;35.12;94426.13;5028811;28;7044;-61
2023/06/25 10:50:34;;;;;;;;;;;;;;;30.34;34.00;94422.84;5046355;28;7051;-61
2023/06/25 10:53:14;;;;;;;;;;;;;;;30.33;34.25;94426.88;5059494;28;7060;-61
2023/06/25 10:55:44;;;;;;;;;;;;;;;30.30;34.62;94414.81;5027858;28;7443;-60
2023/06/25 10:58:16;;;;;;;;;;;;;;;30.37;33.87;94422.47;5043830;28;9229;-61
2023/06/25 11:00:58;;;;;;;;;;;;;;;30.39;33.46;94425.47;5030343;28;7470;-60
2023/06/25 11:03:25;;;;;;;;;;;;;;;30.45;33.31;94426.06;5027160;28;7138;-60
2023/06/25 11:05:57;;;;;;;;;;;;;;;30.49;33.56;94418.13;5026188;28;7271;-61
2023/06/25 11:08:43;;;;;;;;;;;;;;;30.50;33.04;94416.09;5025615;28;7127;-60
2023/06/25 11:11:20;;;;;;;;;;;;;;;30.48;33.69;94411.09;5061229;28;7354;-61
2023/06/25 11:14:20;;;;;;;;;;;;;;;30.55;32.89;94415.22;5046073;28;7232;-60
2023/06/25 11:17:22;;;;;;;;;;;;;;;30.60;33.80;94411.56;5026746;28;7217;-61
2023/06/25 11:20:17;;;;;;;;;;;;;;;30.60;33.24;94408.03;4973113;28;8989;-60
2023/06/25 11:22:53;;;;;;;;;;;;;;;30.58;33.95;94414.13;4971806;28;7018;-61
2023/06/25 11:25:28;;;;;;;;;;;;;;;30.59;33.78;94401.00;4985120;28;7060;-61
2023/06/25 11:28:30;;;;;;;;;;;;;;;30.56;33.09;94410.44;4975268;28;7306;-60
2023/06/25 11:31:00;;;;;;;;;;;;;;;30.56;32.81;94415.97;4984118;28;7195;-60
2023/06/25 11:33:28;;;;;;;;;;;;;;;30.49;33.71;94407.03;5002702;28;8321;-60
2023/06/25 11:36:09;;;;;;;;;;;;;;;30.50;32.77;94407.78;4985742;28;7033;-60
2023/06/25 11:38:35;;;;;;;;;;;;;;;30.47;33.29;94397.78;4985481;28;8497;-60
2023/06/25 11:41:09;;;;;;;;;;;;;;;30.49;32.59;94400.75;4987241;28;7160;-61
2023/06/25 11:43:39;;;;;;;;;;;;;;;30.53;33.62;94404.69;4973066;28;8775;-61
2023/06/25 11:46:41;;;;;;;;;;;;;;;30.56;33.53;94396.53;5000855;28;8964;-61
2023/06/25 11:49:19;;;;;;;;;;;;;;;30.55;33.05;94398.56;4960584;28;7270;-61
2023/06/25 11:51:58;;;;;;;;;;;;;;;30.50;31.98;94394.66;4952611;28;8964;-61
2023/06/25 11:54:25;;;;;;;;;;;;;;;30.55;32.69;94398.56;4946979;28;7268;-61
2023/06/25 11:56:53;;;;;;;;;;;;;;;30.55;32.65;94393.03;4985134;28;8981;-61
2023/06/25 11:59:18;;;;;;;;;;;;;;;30.59;33.33;94395.44;4978189;28;9119;-61
2023/06/25 12:01:47;;;;;;;;;;;;;;;30.62;32.48;94386.03;4959265;28;7243;-61
2023/06/25 12:04:21;;;;;;;;;;;;;;;30.66;33.22;94380.88;4976340;28;7853;-61
2023/06/25 12:06:48;;;;;;;;;;;;;;;30.64;31.85;94375.13;4969371;28;7327;-61
2023/06/25 12:09:15;;;;;;;;;;;;;;;30.69;32.45;94377.03;4969787;28;7536;-61
2023/06/25 12:11:58;;;;;;;;;;;;;;;30.75;31.61;94372.81;4980669;28;7216;-61
2023/06/25 12:14:30;;;;;;;;;;;;;;;30.77;32.23;94380.59;4980363;28;7026;-61
2023/06/25 12:17:03;;;;;;;;;;;;;;;30.78;31.77;94376.50;4980621;28;9105;-61
2023/06/25 12:19:29;;;;;;;;;;;;;;;30.80;32.34;94369.13;4962326;28;7903;-61
2023/06/25 12:21:58;;;;;;;;;;;;;;;30.82;32.79;94376.91;4975818;28;9328;-60
2023/06/25 12:24:24;;;;;;;;;;;;;;;30.83;32.63;94378.41;4992064;28;7754;-61
2023/06/25 12:26:54;;;;;;;;;;;;;;;30.87;32.63;94371.22;5056485;28;7059;-61
2023/06/25 12:29:21;;;;;;;;;;;;;;;30.93;32.05;94365.53;5027309;28;9168;-61
2023/06/25 12:32:16;;;;;;;;;;;;;;;30.97;32.33;94365.94;5025044;28;9431;-61
2023/06/25 12:35:31;;;;;;;;;;;;;;;30.96;31.74;94364.44;4965110;28;7222;-61
2023/06/25 12:38:08;;;;;;;;;;;;;;;30.90;32.04;94363.84;4982085;28;7841;-60
2023/06/25 12:40:56;;;;;;;;;;;;;;;30.86;32.47;94357.88;4964351;28;9653;-60
2023/06/25 12:43:36;;;;;;;;;;;;;;;30.79;32.06;94364.13;4986905;28;8758;-60
2023/06/25 12:46:05;;;;;;;;;;;;;;;30.79;32.11;94353.00;4982238;28;7053;-60
2023/06/25 12:48:33;;;;;;;;;;;;;;;30.82;32.27;94357.47;4969740;28;9104;-60
2023/06/25 12:51:09;;;;;;;;;;;;;;;30.84;32.51;94363.22;4985934;28;7244;-60
2023/06/25 12:53:49;;;;;;;;;;;;;;;30.83;32.31;94351.38;4961070;28;7043;-60
2023/06/25 12:56:21;;;;;;;;;;;;;;;30.83;32.61;94356.19;4985897;28;7199;-60
2023/06/25 12:59:04;;;;;;;;;;;;;;;30.80;32.42;94344.13;4970748;28;7875;-60
2023/06/25 13:02:00;;;;;;;;;;;;;;;30.80;32.88;94348.97;4985911;28;9093;-60
2023/06/25 13:04:29;;;;;;;;;;;;;;;30.77;33.68;94347.25;4931116;28;8677;-60
2023/06/25 13:07:05;;;;;;;;;;;;;;;30.78;33.18;94346.69;4935018;29;8949;-61
2023/06/25 13:09:35;;;;;;;;;;;;;;;30.79;32.70;94347.44;4920645;28;7166;-60
2023/06/25 13:12:12;;;;;;;;;;;;;;;30.80;32.48;94346.19;4962393;28;6878;-60
2023/06/25 13:14:43;;;;;;;;;;;;;;;30.82;33.37;94351.94;4984441;28;7363;-60
2023/06/25 13:17:19;;;;;;;;;;;;;;;30.82;33.23;94338.03;4956685;28;7046;-60
2023/06/25 13:19:54;;;;;;;;;;;;;;;30.84;33.62;94341.00;4983901;28;9032;-60
2023/06/25 13:22:29;;;;;;;;;;;;;;;30.84;32.57;94335.47;4980150;28;7315;-60
2023/06/25 13:25:05;;;;;;;;;;;;;;;30.80;32.80;94335.06;4980338;28;7003;-60
2023/06/25 13:28:00;;;;;;;;;;;;;;;30.84;33.40;94336.19;4966584;28;7228;-59
2023/06/25 13:30:38;;;;;;;;;;;;;;;30.85;32.95;94334.91;4916439;29;8978;-60
2023/06/25 13:33:06;;;;;;;;;;;;;;;30.83;33.74;94340.25;4944086;28;7509;-60
2023/06/25 13:35:36;;;;;;;;;;;;;;;30.85;33.18;94342.47;4944872;28;9287;-60
2023/06/25 13:38:06;;;;;;;;;;;;;;;30.86;33.42;94342.00;4944412;28;6959;-60
2023/06/25 13:40:34;;;;;;;;;;;;;;;30.88;32.89;94333.09;4951226;28;7030;-60
2023/06/25 13:43:10;;;;;;;;;;;;;;;30.89;33.50;94331.78;4950575;28;7164;-60